Time;durP1;ratioP1;P1;durP2;ratioP2;P2;SDS_P1;SDS_P2;PMS_P1;PMS_P2;Temp;Humidity;BMP_temperature;BMP_pressure;BME280_temperature;BME280_humidity;BME280_pressure;Samples;Min_cycle;Max_cycle;Signal;HPM_P1;HPM_P2
2021/12/06 00:00:30;;;;;;;12.73;8.50;;;3.60;99.90;;;;;;5053141;28;20168;-45
2021/12/06 00:02:59;;;;;;;14.00;8.30;;;3.60;99.90;;;;;;5054082;28;20524;-46
2021/12/06 00:05:26;;;;;;;13.33;8.50;;;3.60;99.90;;;;;;5053038;28;20172;-45
2021/12/06 00:07:52;;;;;;;14.97;8.53;;;3.60;99.90;;;;;;5053242;28;20207;-47
2021/12/06 00:10:18;;;;;;;14.87;8.40;;;3.50;99.90;;;;;;5053407;28;20668;-46
2021/12/06 00:12:44;;;;;;;19.60;9.80;;;3.50;99.90;;;;;;5053097;28;20231;-46
2021/12/06 00:15:12;;;;;;;13.40;9.30;;;3.50;99.90;;;;;;5053181;28;20211;-47
2021/12/06 00:17:38;;;;;;;16.70;9.77;;;3.50;99.90;;;;;;5035115;28;20180;-47
2021/12/06 00:20:06;;;;;;;18.13;10.50;;;3.50;99.90;;;;;;5053213;28;20195;-47
2021/12/06 00:22:32;;;;;;;22.23;11.83;;;3.50;99.90;;;;;;5052755;28;20206;-46
2021/12/06 00:24:59;;;;;;;15.87;10.20;;;3.50;99.90;;;;;;5034978;28;20616;-45
2021/12/06 00:27:25;;;;;;;17.30;10.03;;;3.50;99.90;;;;;;5052832;28;20182;-47
2021/12/06 00:29:52;;;;;;;14.30;10.10;;;3.50;99.90;;;;;;5053101;28;20256;-47
2021/12/06 00:32:17;;;;;;;14.60;9.87;;;3.50;99.90;;;;;;5052779;28;20250;-47
2021/12/06 00:34:43;;;;;;;19.13;10.93;;;3.50;99.90;;;;;;5056682;28;20576;-47
2021/12/06 00:37:20;;;;;;;16.87;9.57;;;3.50;99.90;;;;;;5056649;28;20196;-46
2021/12/06 00:39:59;;;;;;;13.07;9.20;;;3.50;99.90;;;;;;5056780;28;20186;-47
2021/12/06 00:42:31;;;;;;;16.13;9.70;;;3.50;99.90;;;;;;5056884;28;20196;-45
2021/12/06 00:44:57;;;;;;;14.13;8.67;;;3.50;99.90;;;;;;5056832;28;20167;-46
2021/12/06 00:47:23;;;;;;;12.03;8.53;;;3.50;99.90;;;;;;5056804;28;20180;-46
2021/12/06 00:49:50;;;;;;;12.70;8.73;;;3.50;99.90;;;;;;5038598;28;20238;-46
2021/12/06 00:52:16;;;;;;;11.10;8.43;;;3.50;99.90;;;;;;5038456;28;20692;-47
2021/12/06 00:54:42;;;;;;;14.63;8.50;;;3.40;99.90;;;;;;5056583;28;20184;-47
2021/12/06 00:57:09;;;;;;;14.80;8.73;;;3.50;99.90;;;;;;5038521;28;20180;-47
2021/12/06 00:59:36;;;;;;;11.43;8.13;;;3.40;99.90;;;;;;5056459;28;20571;-49
2021/12/06 01:02:03;;;;;;;10.50;7.43;;;3.40;99.90;;;;;;5056504;28;20553;-47
2021/12/06 01:04:31;;;;;;;13.90;7.37;;;3.40;99.90;;;;;;5056207;28;20183;-47
2021/12/06 01:06:58;;;;;;;9.53;6.90;;;3.40;99.90;;;;;;5056256;28;20172;-46
2021/12/06 01:09:24;;;;;;;9.83;7.00;;;3.40;99.90;;;;;;5056183;28;20658;-49
2021/12/06 01:11:50;;;;;;;10.27;7.00;;;3.40;99.90;;;;;;5056109;28;20199;-46
2021/12/06 01:14:16;;;;;;;8.50;6.83;;;3.40;99.90;;;;;;5056088;28;20180;-48
2021/12/06 01:16:42;;;;;;;15.23;6.90;;;3.30;99.90;;;;;;5056025;28;20756;-48
2021/12/06 01:19:07;;;;;;;8.97;6.30;;;3.40;99.90;;;;;;5038203;28;20259;-46
2021/12/06 01:22:05;;;;;;;9.00;6.57;;;3.30;99.90;;;;;;5055772;28;20226;-46
2021/12/06 01:24:39;;;;;;;12.43;6.37;;;3.30;99.90;;;;;;5038289;28;20641;-40
2021/12/06 01:29:59;;;;;;;10.10;6.40;;;3.40;99.90;;;;;;5055773;28;20545;-42
2021/12/06 01:40:22;;;;;;;8.93;6.30;;;3.30;99.90;;;;;;5056188;28;20167;-41
2021/12/06 01:42:48;;;;;;;12.20;6.97;;;3.30;99.90;;;;;;5055560;28;20192;-41
2021/12/06 01:45:14;;;;;;;9.30;6.17;;;3.30;99.90;;;;;;5036486;28;20625;-42
2021/12/06 01:47:41;;;;;;;9.50;6.73;;;3.30;99.90;;;;;;5055736;28;20571;-41
2021/12/06 01:50:17;;;;;;;10.53;6.90;;;3.30;99.90;;;;;;5055540;28;20555;-43
2021/12/06 01:52:50;;;;;;;9.03;6.87;;;3.20;99.90;;;;;;5055771;28;20759;-42
2021/12/06 01:55:20;;;;;;;10.77;6.90;;;3.20;99.90;;;;;;5055302;28;20200;-42
2021/12/06 01:57:47;;;;;;;9.03;6.70;;;3.20;99.90;;;;;;5055579;28;20160;-41
2021/12/06 02:00:30;;;;;;;9.57;7.07;;;3.20;99.90;;;;;;5055105;28;20175;-41
2021/12/06 02:02:57;;;;;;;8.53;6.40;;;3.20;99.90;;;;;;5055695;28;20216;-40
2021/12/06 02:05:22;;;;;;;9.40;6.80;;;3.20;99.90;;;;;;5055203;28;20195;-43
2021/12/06 02:07:48;;;;;;;11.57;8.00;;;3.20;99.90;;;;;;5057754;28;20183;-42
2021/12/06 02:10:14;;;;;;;10.20;7.53;;;3.20;99.90;;;;;;5060210;28;20180;-43
2021/12/06 02:12:40;;;;;;;10.47;7.63;;;3.20;99.90;;;;;;5056994;28;20203;-42
2021/12/06 02:15:19;;;;;;;10.77;7.43;;;3.20;99.90;;;;;;5037144;28;20553;-42
2021/12/06 02:17:55;;;;;;;13.30;7.90;;;3.20;99.90;;;;;;5055218;28;20156;-41
2021/12/06 02:20:26;;;;;;;23.40;11.80;;;3.20;99.90;;;;;;5055104;28;20255;-43
2021/12/06 02:22:53;;;;;;;22.93;11.20;;;3.20;99.90;;;;;;5054753;28;20312;-42
2021/12/06 02:25:20;;;;;;;16.40;10.03;;;3.20;99.90;;;;;;5054801;28;20176;-42
2021/12/06 02:27:48;;;;;;;20.27;10.53;;;3.20;99.90;;;;;;5054723;28;20191;-41
2021/12/06 02:30:15;;;;;;;19.23;10.63;;;3.20;99.90;;;;;;5055038;28;20188;-41
2021/12/06 02:32:41;;;;;;;18.13;10.07;;;3.20;99.90;;;;;;5054668;28;20195;-42
2021/12/06 02:35:12;;;;;;;14.63;9.73;;;3.20;99.90;;;;;;5054553;28;20207;-42
2021/12/06 02:37:38;;;;;;;13.47;8.87;;;3.20;99.90;;;;;;5054507;28;20194;-39
2021/12/06 02:40:09;;;;;;;16.60;10.33;;;3.20;99.90;;;;;;5055115;28;20191;-41
2021/12/06 02:42:36;;;;;;;17.23;11.13;;;3.20;99.90;;;;;;5054455;28;20295;-41
2021/12/06 02:45:04;;;;;;;17.47;11.30;;;3.20;99.90;;;;;;5054503;28;20180;-42
2021/12/06 02:47:29;;;;;;;15.90;11.20;;;3.20;99.90;;;;;;5054473;28;20180;-41
2021/12/06 02:49:55;;;;;;;19.60;11.33;;;3.20;99.90;;;;;;5036510;28;20278;-43
2021/12/06 02:52:21;;;;;;;18.83;11.67;;;3.30;99.90;;;;;;5036400;28;20265;-43
2021/12/06 02:54:54;;;;;;;14.80;10.40;;;3.20;99.90;;;;;;5054310;28;20708;-38
2021/12/06 02:57:31;;;;;;;17.20;11.27;;;3.20;99.90;;;;;;5054219;28;20171;-41
2021/12/06 02:59:57;;;;;;;19.83;11.90;;;3.20;99.90;;;;;;5054532;28;20213;-42
2021/12/06 03:02:23;;;;;;;18.07;11.87;;;3.10;99.90;;;;;;5054046;28;20242;-40
2021/12/06 03:04:49;;;;;;;18.30;12.73;;;3.10;99.90;;;;;;5036229;28;20183;-40
2021/12/06 03:07:20;;;;;;;17.33;12.47;;;3.10;99.90;;;;;;5054023;28;20185;-46
2021/12/06 03:09:50;;;;;;;19.17;11.63;;;3.20;99.90;;;;;;5054277;28;20167;-42
2021/12/06 03:12:19;;;;;;;19.77;12.47;;;3.10;99.90;;;;;;5053910;28;20198;-41
2021/12/06 03:14:54;;;;;;;19.97;12.67;;;3.10;99.90;;;;;;5053718;28;20266;-42
2021/12/06 03:17:22;;;;;;;17.00;12.57;;;3.10;99.90;;;;;;5054205;28;20174;-39
2021/12/06 03:19:48;;;;;;;16.97;12.33;;;3.10;99.90;;;;;;5053995;28;20182;-44
2021/12/06 03:22:16;;;;;;;20.07;13.27;;;3.10;99.90;;;;;;5054200;28;20274;-42
2021/12/06 03:24:43;;;;;;;20.50;12.60;;;3.10;99.90;;;;;;5054021;28;20194;-41
2021/12/06 03:27:10;;;;;;;18.53;12.33;;;3.10;99.90;;;;;;5035698;28;20713;-43
2021/12/06 03:29:36;;;;;;;22.63;11.73;;;3.10;99.90;;;;;;5053618;28;20230;-40
2021/12/06 03:32:03;;;;;;;21.47;12.93;;;3.10;99.90;;;;;;5035597;28;20203;-40
2021/12/06 03:34:31;;;;;;;17.50;13.60;;;3.10;99.90;;;;;;5053334;28;20194;-43
2021/12/06 03:37:01;;;;;;;16.20;12.27;;;3.10;99.90;;;;;;5053510;28;20202;-40
2021/12/06 03:39:34;;;;;;;17.07;11.93;;;3.10;99.90;;;;;;5035683;28;20172;-41
2021/12/06 03:42:03;;;;;;;21.57;14.33;;;3.10;99.90;;;;;;5053967;28;20208;-39
2021/12/06 03:44:29;;;;;;;18.17;12.53;;;3.10;99.90;;;;;;5053516;28;20228;-41
2021/12/06 03:46:59;;;;;;;18.00;12.53;;;3.10;99.90;;;;;;5053502;28;20686;-42
2021/12/06 03:49:25;;;;;;;18.77;12.33;;;3.10;99.90;;;;;;5035592;28;20198;-41
2021/12/06 03:51:51;;;;;;;15.10;11.87;;;3.10;99.90;;;;;;5053385;28;20194;-42
2021/12/06 03:54:23;;;;;;;19.13;12.90;;;3.00;99.90;;;;;;5053435;28;20659;-41
2021/12/06 03:56:49;;;;;;;18.67;12.03;;;3.00;99.90;;;;;;5053804;28;20225;-42
2021/12/06 03:59:14;;;;;;;18.33;12.07;;;2.90;99.90;;;;;;5053500;28;20236;-43
2021/12/06 04:01:40;;;;;;;16.27;11.37;;;2.90;99.90;;;;;;5053151;28;20731;-41
2021/12/06 04:04:08;;;;;;;13.70;10.60;;;2.90;99.90;;;;;;5053755;28;20184;-43
2021/12/06 04:06:36;;;;;;;16.33;10.20;;;2.90;99.90;;;;;;5053423;28;20606;-42
2021/12/06 04:09:05;;;;;;;15.60;10.27;;;2.80;99.90;;;;;;5052419;28;20191;-43
2021/12/06 04:11:31;;;;;;;13.17;9.87;;;2.80;99.90;;;;;;5053211;28;20289;-44
2021/12/06 04:13:57;;;;;;;17.97;10.37;;;2.70;99.90;;;;;;5053610;28;20604;-41
2021/12/06 04:16:23;;;;;;;13.03;9.23;;;2.70;99.90;;;;;;5053043;28;20232;-42
2021/12/06 04:18:49;;;;;;;14.70;9.87;;;2.60;99.90;;;;;;5053186;28;20176;-41
2021/12/06 04:21:17;;;;;;;13.47;10.17;;;2.60;99.90;;;;;;5035362;28;20559;-39
2021/12/06 04:23:43;;;;;;;14.03;10.73;;;2.50;99.90;;;;;;5053118;28;20176;-40
2021/12/06 04:26:10;;;;;;;13.07;9.77;;;2.50;99.90;;;;;;5053429;28;20605;-43
2021/12/06 04:28:37;;;;;;;14.80;10.40;;;2.50;99.90;;;;;;5052979;28;20730;-41
2021/12/06 04:31:04;;;;;;;13.07;9.13;;;2.50;99.90;;;;;;5052949;28;20198;-44
2021/12/06 04:33:30;;;;;;;14.67;11.10;;;2.40;99.90;;;;;;5052973;28;20349;-40
2021/12/06 04:35:56;;;;;;;13.20;10.50;;;2.40;99.90;;;;;;5053394;28;20292;-40
2021/12/06 04:38:21;;;;;;;17.73;10.23;;;2.40;99.90;;;;;;5052838;28;20198;-41
2021/12/06 04:40:48;;;;;;;16.10;9.83;;;2.30;99.90;;;;;;5053669;28;20172;-40
2021/12/06 04:43:14;;;;;;;18.20;9.80;;;2.30;99.90;;;;;;5052928;28;20175;-40
2021/12/06 04:45:40;;;;;;;19.00;10.30;;;2.20;99.90;;;;;;5052793;28;20191;-43
2021/12/06 04:48:08;;;;;;;24.87;9.20;;;2.20;99.90;;;;;;5052791;28;20646;-38
2021/12/06 04:50:34;;;;;;;42.40;9.43;;;2.10;99.90;;;;;;5035004;28;20188;-40
2021/12/06 04:53:08;;;;;;;18.63;9.47;;;2.10;99.90;;;;;;5052733;28;20312;-40
2021/12/06 04:55:48;;;;;;;13.43;9.10;;;2.00;99.90;;;;;;5034894;28;20224;-40
2021/12/06 04:58:18;;;;;;;29.20;8.30;;;2.00;99.90;;;;;;5052813;28;20212;-43
2021/12/06 05:00:58;;;;;;;18.90;9.47;;;1.90;99.90;;;;;;5052845;28;20404;-40
2021/12/06 05:03:24;;;;;;;18.30;9.30;;;1.90;99.90;;;;;;5052947;28;20614;-39
2021/12/06 05:06:02;;;;;;;21.83;9.40;;;1.80;99.90;;;;;;5052650;28;20183;-42
2021/12/06 05:08:32;;;;;;;19.80;8.10;;;1.80;99.90;;;;;;5052918;28;20198;-41
2021/12/06 05:11:01;;;;;;;40.20;8.13;;;1.70;99.90;;;;;;5053906;28;20566;-41
2021/12/06 05:13:27;;;;;;;24.83;7.23;;;1.70;99.90;;;;;;5055719;28;20547;-45
2021/12/06 05:15:54;;;;;;;47.63;9.43;;;1.60;99.90;;;;;;5053620;28;20727;-47
2021/12/06 05:18:19;;;;;;;24.50;8.30;;;1.60;99.90;;;;;;5052385;28;20409;-49
2021/12/06 05:20:45;;;;;;;26.77;8.53;;;1.60;99.90;;;;;;5056456;28;20178;-45
2021/12/06 05:23:11;;;;;;;17.43;8.00;;;1.60;99.90;;;;;;5056695;28;20172;-46
2021/12/06 05:25:38;;;;;;;23.57;8.57;;;1.50;99.90;;;;;;5056526;28;20175;-45
2021/12/06 05:28:05;;;;;;;26.73;9.00;;;1.50;99.90;;;;;;5056022;28;20175;-44
2021/12/06 05:30:31;;;;;;;21.50;9.27;;;1.50;99.90;;;;;;5056007;28;20937;-45
2021/12/06 05:32:59;;;;;;;31.90;9.50;;;1.50;99.90;;;;;;5056116;28;20571;-46
2021/12/06 05:35:25;;;;;;;12.87;9.27;;;1.50;99.90;;;;;;5056042;28;20462;-47
2021/12/06 05:37:56;;;;;;;22.83;9.23;;;1.50;99.90;;;;;;5055683;28;20531;-46
2021/12/06 05:40:25;;;;;;;22.47;10.00;;;1.50;99.90;;;;;;5055827;28;20395;-44
2021/12/06 05:42:52;;;;;;;21.37;9.57;;;1.50;99.90;;;;;;5055655;28;20190;-46
2021/12/06 05:45:20;;;;;;;11.50;8.90;;;1.50;99.90;;;;;;5055755;28;20178;-46
2021/12/06 05:47:46;;;;;;;11.90;9.30;;;1.50;99.90;;;;;;5055592;28;20182;-44
2021/12/06 05:50:13;;;;;;;11.80;9.07;;;1.50;99.90;;;;;;5037728;28;20420;-45
2021/12/06 05:52:39;;;;;;;10.90;8.60;;;1.40;99.90;;;;;;5055449;28;20198;-45
2021/12/06 05:55:07;;;;;;;11.40;8.57;;;1.40;99.90;;;;;;5055465;28;20496;-46
2021/12/06 05:57:33;;;;;;;19.13;9.20;;;1.40;99.90;;;;;;5055726;28;20552;-47
2021/12/06 05:59:59;;;;;;;16.10;8.67;;;1.40;99.90;;;;;;5055348;28;20452;-46
2021/12/06 06:02:25;;;;;;;17.30;9.33;;;1.40;99.90;;;;;;5055797;28;20433;-44
2021/12/06 06:04:50;;;;;;;14.03;9.97;;;1.40;99.90;;;;;;5037424;28;20174;-45
2021/12/06 06:07:16;;;;;;;21.63;10.00;;;1.40;99.90;;;;;;5055310;28;20210;-45
2021/12/06 06:09:42;;;;;;;17.93;9.93;;;1.30;99.90;;;;;;5055184;28;20216;-45
2021/12/06 06:12:08;;;;;;;28.73;10.23;;;1.40;99.90;;;;;;5037264;28;20197;-45
2021/12/06 06:14:34;;;;;;;22.57;10.37;;;1.30;99.90;;;;;;5055386;28;20184;-45
2021/12/06 06:17:09;;;;;;;17.83;9.60;;;1.30;99.90;;;;;;5055047;28;20544;-46
2021/12/06 06:19:35;;;;;;;21.10;8.97;;;1.30;99.90;;;;;;5055238;28;20240;-45
2021/12/06 06:22:01;;;;;;;13.87;9.27;;;1.20;99.90;;;;;;5055244;28;20286;-44
2021/12/06 06:24:27;;;;;;;11.20;9.37;;;1.20;99.90;;;;;;5036918;28;20278;-46
2021/12/06 06:26:52;;;;;;;30.40;9.83;;;1.10;99.90;;;;;;5054743;28;20185;-45
2021/12/06 06:29:18;;;;;;;16.17;9.80;;;1.10;99.90;;;;;;5037011;28;20622;-45
2021/12/06 06:31:44;;;;;;;14.33;9.83;;;1.10;99.90;;;;;;5054384;28;20212;-46
2021/12/06 06:34:11;;;;;;;20.90;8.90;;;1.10;99.90;;;;;;5055367;28;20185;-46
2021/12/06 06:36:36;;;;;;;12.17;8.80;;;1.00;99.90;;;;;;5054676;28;20961;-46
2021/12/06 06:39:04;;;;;;;19.27;9.70;;;1.00;99.90;;;;;;5036599;28;20222;-45
2021/12/06 06:41:31;;;;;;;15.93;10.23;;;1.00;99.90;;;;;;5054540;28;20193;-44
2021/12/06 06:43:57;;;;;;;17.67;10.80;;;1.00;99.90;;;;;;5054814;28;20820;-45
2021/12/06 06:46:23;;;;;;;18.93;10.27;;;1.00;99.90;;;;;;5054457;28;20239;-46
2021/12/06 06:48:48;;;;;;;29.63;10.70;;;1.00;99.90;;;;;;5054373;28;20194;-47
2021/12/06 06:51:15;;;;;;;30.03;10.63;;;1.00;99.90;;;;;;5054224;28;20213;-45
2021/12/06 06:53:40;;;;;;;53.83;12.00;;;1.00;99.90;;;;;;5037396;28;20625;-45
2021/12/06 06:56:06;;;;;;;20.57;10.20;;;1.00;99.90;;;;;;5054511;28;20587;-47
2021/12/06 06:58:32;;;;;;;23.40;11.13;;;1.00;99.90;;;;;;5054230;28;20639;-45
2021/12/06 07:00:58;;;;;;;17.27;11.13;;;1.10;99.90;;;;;;5054138;28;20427;-46
2021/12/06 07:03:24;;;;;;;19.97;10.80;;;1.10;99.90;;;;;;5054477;28;20201;-46
2021/12/06 07:05:49;;;;;;;24.70;11.20;;;1.10;99.90;;;;;;5036459;28;20549;-46
2021/12/06 07:08:15;;;;;;;18.60;10.90;;;1.10;99.90;;;;;;5054545;28;20183;-46
2021/12/06 07:10:41;;;;;;;18.60;11.17;;;1.10;99.90;;;;;;5036119;28;20270;-46
2021/12/06 07:13:10;;;;;;;20.40;11.77;;;1.10;99.90;;;;;;5054194;28;20184;-47
2021/12/06 07:15:36;;;;;;;23.17;11.87;;;1.10;99.90;;;;;;5054070;28;20630;-47
2021/12/06 07:18:03;;;;;;;18.67;12.00;;;1.10;99.90;;;;;;5036077;28;20514;-45
2021/12/06 07:20:30;;;;;;;31.90;12.27;;;1.20;99.90;;;;;;5054123;28;20443;-46
2021/12/06 07:22:56;;;;;;;20.27;12.07;;;1.20;99.90;;;;;;5054005;28;20436;-45
2021/12/06 07:25:22;;;;;;;41.90;12.83;;;1.20;99.90;;;;;;5053774;28;20510;-47
2021/12/06 07:27:49;;;;;;;30.53;12.27;;;1.20;99.90;;;;;;5035927;28;20427;-47
2021/12/06 07:30:16;;;;;;;35.40;13.57;;;1.30;99.90;;;;;;5053752;28;20418;-45
2021/12/06 07:32:42;;;;;;;49.17;14.33;;;1.30;99.90;;;;;;5036743;28;20434;-46
2021/12/06 07:35:10;;;;;;;47.63;14.60;;;1.30;99.90;;;;;;5035666;28;20439;-48
2021/12/06 07:37:36;;;;;;;62.17;13.40;;;1.40;99.90;;;;;;5053681;28;20432;-48
2021/12/06 07:40:04;;;;;;;27.43;13.10;;;1.50;99.90;;;;;;5053511;28;20792;-46
2021/12/06 07:42:30;;;;;;;43.17;14.57;;;1.50;99.90;;;;;;5052775;28;20204;-45
2021/12/06 07:44:56;;;;;;;45.00;14.90;;;1.50;99.90;;;;;;5053723;28;20932;-44
2021/12/06 07:47:22;;;;;;;36.57;13.60;;;1.60;99.90;;;;;;5053394;28;20215;-46
2021/12/06 07:49:47;;;;;;;45.20;14.97;;;1.60;99.90;;;;;;5053664;28;20173;-46
2021/12/06 07:52:13;;;;;;;41.23;14.70;;;1.60;99.90;;;;;;5053411;28;20430;-46
2021/12/06 07:54:40;;;;;;;32.83;13.50;;;1.70;99.90;;;;;;5053512;28;20182;-46
2021/12/06 07:57:07;;;;;;;51.90;15.23;;;1.80;99.90;;;;;;5035726;28;20235;-46
2021/12/06 07:59:34;;;;;;;46.60;14.33;;;1.80;99.90;;;;;;5035793;28;20495;-45
2021/12/06 08:02:01;;;;;;;71.40;16.87;;;1.80;99.90;;;;;;5054506;28;20438;-45
2021/12/06 08:04:26;;;;;;;66.77;17.07;;;1.90;99.90;;;;;;5054419;28;20489;-44
2021/12/06 08:06:52;;;;;;;69.90;16.70;;;2.00;99.90;;;;;;5036797;28;20932;-47
2021/12/06 08:09:18;;;;;;;61.40;16.13;;;2.00;99.90;;;;;;5057616;28;20181;-47
2021/12/06 08:11:44;;;;;;;86.43;17.27;;;2.00;99.90;;;;;;5061904;28;20196;-45
2021/12/06 08:14:10;;;;;;;61.87;19.10;;;2.00;99.90;;;;;;5036310;28;20913;-45
2021/12/06 08:16:41;;;;;;;80.97;21.67;;;2.10;99.90;;;;;;5053286;28;20542;-46
2021/12/06 08:19:07;;;;;;;59.27;19.03;;;2.10;99.90;;;;;;5053897;28;20166;-47
2021/12/06 08:21:33;;;;;;;67.40;19.10;;;2.20;99.90;;;;;;5053194;28;20438;-45
2021/12/06 08:24:00;;;;;;;64.03;19.70;;;2.20;99.90;;;;;;5052992;28;20172;-46
2021/12/06 08:26:29;;;;;;;90.07;18.60;;;2.20;99.90;;;;;;5053221;28;20637;-45
2021/12/06 08:28:56;;;;;;;57.97;19.13;;;2.30;99.90;;;;;;5052915;28;20905;-44
2021/12/06 08:31:23;;;;;;;68.33;21.07;;;2.20;99.90;;;;;;5052877;28;20546;-45
2021/12/06 08:33:50;;;;;;;68.73;19.43;;;2.30;99.90;;;;;;5052906;28;20422;-46
2021/12/06 08:36:17;;;;;;;84.10;20.00;;;2.30;99.90;;;;;;5053124;28;20478;-47
2021/12/06 08:38:43;;;;;;;79.33;20.43;;;2.40;99.90;;;;;;5052814;28;20197;-46
2021/12/06 08:41:12;;;;;;;70.83;19.57;;;2.40;99.90;;;;;;5052990;28;20443;-48
2021/12/06 08:43:39;;;;;;;101.20;19.33;;;2.40;99.90;;;;;;5053044;28;20468;-46
2021/12/06 08:46:16;;;;;;;95.17;19.67;;;2.40;99.90;;;;;;5052641;28;20411;-46
2021/12/06 08:48:43;;;;;;;121.13;19.93;;;2.40;99.90;;;;;;5053096;28;20400;-45
2021/12/06 08:51:19;;;;;;;131.10;22.70;;;2.40;99.90;;;;;;5053066;28;20801;-46
2021/12/06 08:53:45;;;;;;;101.37;19.60;;;2.50;99.90;;;;;;5053309;28;20395;-46
2021/12/06 08:56:12;;;;;;;80.17;19.17;;;2.50;99.90;;;;;;5057118;28;20558;-48
2021/12/06 08:58:38;;;;;;;83.63;19.67;;;2.50;99.90;;;;;;5056834;28;20414;-45
2021/12/06 09:01:04;;;;;;;86.20;19.97;;;2.50;99.90;;;;;;5056684;28;20431;-48
2021/12/06 09:03:30;;;;;;;118.30;20.03;;;2.50;99.90;;;;;;5057115;28;20205;-47
2021/12/06 09:05:57;;;;;;;86.13;18.37;;;2.50;99.90;;;;;;5056729;28;20780;-45
2021/12/06 09:08:24;;;;;;;88.37;19.83;;;2.50;99.90;;;;;;5056362;28;20413;-45
2021/12/06 09:10:51;;;;;;;139.13;19.10;;;2.60;99.90;;;;;;5056183;28;20546;-46
2021/12/06 09:13:19;;;;;;;87.63;18.47;;;2.60;99.90;;;;;;5038371;28;20995;-47
2021/12/06 09:15:45;;;;;;;77.47;16.63;;;2.60;99.90;;;;;;5038138;28;20304;-46
2021/12/06 09:18:11;;;;;;;116.47;20.47;;;2.60;99.90;;;;;;5056148;28;20487;-45
2021/12/06 09:20:40;;;;;;;107.37;17.37;;;2.60;99.90;;;;;;5056337;28;20351;-46
2021/12/06 09:23:06;;;;;;;96.13;16.13;;;2.60;99.90;;;;;;5056082;28;20184;-47
2021/12/06 09:25:33;;;;;;;74.73;16.23;;;2.50;99.90;;;;;;5056216;28;20186;-47
2021/12/06 09:27:59;;;;;;;111.83;18.40;;;2.50;99.90;;;;;;5056021;28;20183;-48
2021/12/06 09:30:30;;;;;;;85.97;16.63;;;2.50;99.90;;;;;;5038083;28;20180;-47
2021/12/06 09:32:57;;;;;;;39.33;14.77;;;2.50;99.90;;;;;;5056169;28;20660;-47
2021/12/06 09:35:27;;;;;;;59.70;15.80;;;2.50;99.90;;;;;;5056587;28;20261;-48
2021/12/06 09:37:55;;;;;;;43.37;15.20;;;2.50;99.90;;;;;;5055573;28;20187;-48
2021/12/06 09:40:22;;;;;;;60.47;16.47;;;2.50;99.90;;;;;;5056021;28;20171;-46
2021/12/06 09:42:48;;;;;;;32.27;14.97;;;2.50;99.90;;;;;;5055842;28;20228;-45
2021/12/06 09:45:18;;;;;;;31.30;15.73;;;2.50;99.90;;;;;;5037921;28;20214;-47
2021/12/06 09:47:50;;;;;;;29.20;15.43;;;2.40;99.90;;;;;;5056137;28;20166;-47
2021/12/06 09:50:24;;;;;;;37.40;15.67;;;2.50;99.90;;;;;;5056302;28;20188;-45
2021/12/06 09:52:50;;;;;;;39.83;17.47;;;2.50;99.90;;;;;;5055873;28;20203;-48
2021/12/06 09:55:17;;;;;;;48.23;18.27;;;2.50;99.90;;;;;;5056159;28;20601;-48
2021/12/06 09:57:42;;;;;;;42.40;20.70;;;2.60;99.90;;;;;;5056057;28;20180;-48
2021/12/06 10:00:09;;;;;;;44.87;18.10;;;2.60;99.90;;;;;;5055607;28;20185;-48
2021/12/06 10:02:35;;;;;;;33.07;18.20;;;2.70;99.90;;;;;;5056677;28;20264;-45
2021/12/06 10:05:01;;;;;;;39.87;18.57;;;2.60;99.90;;;;;;5037279;28;20173;-45
2021/12/06 10:07:26;;;;;;;39.93;18.37;;;2.70;99.90;;;;;;5037095;28;20202;-46
2021/12/06 10:09:53;;;;;;;35.83;17.70;;;2.70;99.90;;;;;;5055356;28;20178;-47
2021/12/06 10:12:21;;;;;;;37.53;17.57;;;2.70;99.90;;;;;;5055196;28;20199;-48
2021/12/06 10:14:48;;;;;;;40.97;19.23;;;2.80;99.90;;;;;;5055516;28;20263;-46
2021/12/06 10:17:19;;;;;;;43.07;20.77;;;2.80;99.90;;;;;;5055358;28;20221;-46
2021/12/06 10:19:45;;;;;;;40.27;20.13;;;2.80;99.90;;;;;;5055592;28;20194;-46
2021/12/06 10:22:12;;;;;;;39.57;20.30;;;2.90;99.90;;;;;;5055102;28;20283;-48
2021/12/06 10:24:38;;;;;;;45.20;20.33;;;3.10;99.90;;;;;;5055402;28;20170;-45
2021/12/06 10:27:07;;;;;;;40.13;20.87;;;3.10;99.90;;;;;;5055826;28;20183;-46
2021/12/06 10:29:49;;;;;;;40.27;20.13;;;3.20;99.90;;;;;;5055680;28;20190;-46
2021/12/06 10:32:18;;;;;;;36.13;19.67;;;3.20;99.90;;;;;;5055084;28;20566;-40
2021/12/06 10:34:51;;;;;;;38.07;19.70;;;3.20;99.90;;;;;;5054692;28;20270;-40
2021/12/06 10:37:34;;;;;;;39.83;20.67;;;3.20;99.90;;;;;;5036626;28;20349;-38
2021/12/06 10:40:03;;;;;;;46.03;22.73;;;3.30;99.90;;;;;;5054608;28;20206;-40
2021/12/06 10:42:31;;;;;;;49.63;22.13;;;3.30;99.90;;;;;;5054818;28;20191;-41
2021/12/06 10:45:07;;;;;;;45.80;22.27;;;3.40;99.90;;;;;;5054654;28;20179;-41
2021/12/06 10:47:33;;;;;;;46.13;22.43;;;3.50;99.90;;;;;;5055039;28;20594;-42
2021/12/06 10:50:11;;;;;;;43.70;24.13;;;3.60;99.90;;;;;;5054471;28;20266;-40
2021/12/06 10:52:55;;;;;;;43.67;21.60;;;3.70;99.90;;;;;;5020069;28;20211;-40
2021/12/06 10:55:23;;;;;;;42.43;22.47;;;3.80;99.90;;;;;;5054600;28;20552;-40
2021/12/06 10:57:59;;;;;;;44.87;23.47;;;3.90;99.90;;;;;;5036388;28;20186;-43
2021/12/06 11:00:31;;;;;;;42.83;23.10;;;3.90;99.90;;;;;;5054455;28;20167;-43
2021/12/06 11:02:57;;;;;;;45.87;22.77;;;3.80;99.90;;;;;;5054261;28;20210;-43
2021/12/06 11:05:29;;;;;;;47.30;24.77;;;3.80;99.90;;;;;;5036424;28;20184;-42
2021/12/06 11:08:12;;;;;;;48.70;25.00;;;3.80;99.90;;;;;;5054501;28;20267;-43
2021/12/06 11:10:59;;;;;;;42.23;22.60;;;3.80;99.90;;;;;;5054810;28;20548;-43
2021/12/06 11:13:35;;;;;;;42.13;23.87;;;3.80;99.90;;;;;;5041927;28;20622;-39
2021/12/06 11:16:03;;;;;;;38.80;22.57;;;3.80;99.90;;;;;;5059559;28;20280;-42
2021/12/06 11:18:53;;;;;;;35.87;20.43;;;3.70;99.90;;;;;;5036155;28;20180;-44
2021/12/06 11:21:28;;;;;;;34.90;19.27;;;3.70;99.90;;;;;;5054217;28;20193;-40
2021/12/06 11:24:01;;;;;;;36.90;21.20;;;3.80;99.90;;;;;;5054226;28;20525;-41
2021/12/06 11:26:28;;;;;;;39.20;20.63;;;3.80;99.90;;;;;;5054380;28;20629;-42
2021/12/06 11:28:54;;;;;;;39.30;20.77;;;3.90;99.90;;;;;;5054086;28;20552;-41
2021/12/06 11:31:20;;;;;;;40.50;22.67;;;4.00;99.90;;;;;;5053770;28;20290;-43
2021/12/06 11:33:58;;;;;;;36.67;21.10;;;4.10;99.90;;;;;;5054014;28;20638;-42
2021/12/06 11:36:25;;;;;;;40.13;20.27;;;4.20;99.90;;;;;;5054028;28;20199;-40
2021/12/06 11:38:58;;;;;;;38.67;20.43;;;4.30;99.90;;;;;;5035685;28;20194;-44
2021/12/06 11:41:24;;;;;;;38.57;20.97;;;4.40;99.90;;;;;;5053868;28;20199;-41
2021/12/06 11:43:50;;;;;;;39.60;21.57;;;4.40;99.90;;;;;;5053944;28;20183;-41
2021/12/06 11:46:31;;;;;;;39.47;20.07;;;4.50;99.90;;;;;;5053564;28;20549;-41
2021/12/06 11:48:57;;;;;;;37.33;20.50;;;4.60;99.90;;;;;;5053512;28;20239;-43
2021/12/06 11:51:24;;;;;;;35.43;20.10;;;4.60;99.90;;;;;;5053684;28;20231;-42
2021/12/06 11:53:55;;;;;;;36.53;18.63;;;4.70;99.90;;;;;;5053884;28;20176;-45
2021/12/06 11:56:25;;;;;;;32.10;18.77;;;4.80;99.90;;;;;;5035655;28;20196;-46
2021/12/06 11:58:54;;;;;;;34.23;18.80;;;4.80;99.90;;;;;;5053923;28;20178;-47
2021/12/06 12:01:27;;;;;;;32.30;18.87;;;4.90;99.90;;;;;;5053370;28;20222;-47
2021/12/06 12:03:57;;;;;;;32.40;18.80;;;4.90;99.90;;;;;;5053700;28;20679;-48
2021/12/06 12:06:34;;;;;;;23.47;14.77;;;5.00;99.90;;;;;;5053371;28;20214;-45
2021/12/06 12:09:05;;;;;;;16.57;10.17;;;5.10;99.90;;;;;;5053422;28;20184;-46
2021/12/06 12:11:31;;;;;;;17.13;10.57;;;5.20;99.90;;;;;;5035243;28;20200;-46
2021/12/06 12:13:58;;;;;;;15.90;10.00;;;5.20;99.90;;;;;;5053436;28;20185;-46
2021/12/06 12:16:24;;;;;;;15.83;10.00;;;5.30;99.90;;;;;;5053010;28;20556;-47
2021/12/06 12:18:50;;;;;;;15.47;10.30;;;5.40;99.90;;;;;;5053386;28;20263;-46
2021/12/06 12:21:17;;;;;;;16.33;9.73;;;5.50;99.90;;;;;;5053182;28;20205;-45
2021/12/06 12:23:43;;;;;;;12.63;8.97;;;5.50;99.90;;;;;;5053136;28;20174;-46
2021/12/06 12:26:15;;;;;;;14.87;9.97;;;5.50;99.90;;;;;;5053474;28;20177;-46
2021/12/06 12:29:02;;;;;;;17.37;9.80;;;5.60;99.90;;;;;;5053886;28;20186;-46
2021/12/06 12:31:30;;;;;;;16.97;11.03;;;5.60;99.90;;;;;;5057172;28;20207;-46
2021/12/06 12:33:56;;;;;;;14.37;10.17;;;5.70;99.90;;;;;;5039385;28;20552;-48
2021/12/06 12:36:24;;;;;;;14.33;10.07;;;5.70;99.90;;;;;;5039191;28;20210;-45
2021/12/06 12:38:54;;;;;;;13.83;9.17;;;5.80;99.90;;;;;;5056986;28;20598;-47
2021/12/06 12:41:22;;;;;;;14.97;10.33;;;5.80;99.90;;;;;;5057304;28;20204;-46
2021/12/06 12:44:02;;;;;;;14.20;10.03;;;5.80;99.90;;;;;;5057043;28;20172;-47
2021/12/06 12:46:38;;;;;;;17.53;10.37;;;5.90;99.90;;;;;;5039298;28;20196;-47
2021/12/06 12:49:10;;;;;;;15.53;9.40;;;6.00;99.90;;;;;;5057178;28;20526;-46
2021/12/06 12:51:39;;;;;;;12.43;8.40;;;6.00;99.90;;;;;;5057304;28;20249;-47
2021/12/06 12:54:11;;;;;;;13.43;8.40;;;6.10;99.90;;;;;;5039433;28;20186;-46
2021/12/06 12:56:41;;;;;;;11.90;7.53;;;6.10;99.90;;;;;;5039582;28;20199;-47